Terminal Aerodrome Forecast
Issued by NWS Springfield, MO

Home | Current Version | Previous Version | Text Only | Print | Product List | Glossary On
Versions: 1 2 3 4 5 6 7 8 9 10 11 12 13 14 15 16
319
FTUS43 KSGF 221120
TAFSGF
TAF
KSGF 221120Z 2212/2312 19005KT P6SM SKC
     FM221500 22007KT P6SM FEW250
     FM230400 18005KT P6SM FEW250=

USA.gov is the U.S. government's official web portal to all federal, state and local government web resources and services.